CPX327 Details

Departure: Cincinnati/Northern Kentucky International Airport (KCVG)
Arrival: Miami International Airport (KMIA)
Route: KENLN4 HYK VXV J43 ATL J89 OTK JUULI SSCOT5


Current Weather Information
KCVG 260852Z 03008KT 10SM CLR M01/M09 A3027 RMK AO2 SLP255 T10061094 51008
KMIA 260853Z 27004KT 10SM FEW022 21/18 A3000 RMK AO2 SLP160 T02110178 56012